Time;durP1;ratioP1;P1;durP2;ratioP2;P2;SDS_P1;SDS_P2;PMS_P1;PMS_P2;Temp;Humidity;BMP_temperature;BMP_pressure;BME280_temperature;BME280_humidity;BME280_pressure;Samples;Min_cycle;Max_cycle;Signal;HPM_P1;HPM_P2
2023/03/23 00:01:56;;;;;;;9.30;1.40;;;12.60;99.90;;;;;;4915014;29;20039;-78
2023/03/23 00:04:22;;;;;;;10.98;1.98;;;12.70;99.90;;;;;;4906739;29;20032;-77
2023/03/23 00:06:49;;;;;;;14.45;1.90;;;12.70;99.90;;;;;;4912660;29;20042;-78
2023/03/23 00:09:15;;;;;;;8.10;1.67;;;12.70;99.90;;;;;;4904898;29;20056;-76
2023/03/23 00:11:42;;;;;;;9.88;1.55;;;12.60;99.90;;;;;;4911599;29;20051;-76
2023/03/23 00:14:12;;;;;;;12.25;1.90;;;12.70;99.90;;;;;;4913693;29;20571;-78
2023/03/23 00:16:40;;;;;;;9.30;1.58;;;12.70;99.90;;;;;;4916706;29;20512;-78
2023/03/23 00:19:14;;;;;;;8.93;1.85;;;12.70;99.90;;;;;;4920751;29;20044;-78
2023/03/23 00:21:41;;;;;;;13.82;1.92;;;12.70;99.90;;;;;;4914481;29;20028;-77
2023/03/23 00:24:10;;;;;;;9.80;2.13;;;12.70;99.90;;;;;;4904744;29;20024;-79
2023/03/23 00:26:39;;;;;;;11.07;1.88;;;12.80;99.90;;;;;;4916718;29;20039;-78
2023/03/23 00:29:13;;;;;;;10.32;1.63;;;12.80;99.90;;;;;;4919689;29;20036;-79
2023/03/23 00:31:39;;;;;;;;;;;12.80;99.90;;;;;;4920038;29;20024;-78
2023/03/23 00:34:05;;;;;;;8.00;1.27;;;12.80;99.90;;;;;;4916469;29;19919;-79
2023/03/23 00:36:35;;;;;;;9.02;1.70;;;12.80;99.90;;;;;;4906830;29;20028;-78
2023/03/23 00:39:04;;;;;;;8.43;1.48;;;12.80;99.90;;;;;;4919110;29;20187;-79
2023/03/23 00:41:30;;;;;;;8.05;1.30;;;12.80;99.90;;;;;;4919767;29;20032;-79
2023/03/23 00:44:00;;;;;;;10.07;1.58;;;12.80;99.90;;;;;;4918796;29;20039;-79
2023/03/23 00:46:27;;;;;;;6.70;1.13;;;12.80;99.90;;;;;;4920361;29;20028;-79
2023/03/23 00:48:56;;;;;;;8.05;1.42;;;12.80;99.90;;;;;;4914236;29;20042;-79
2023/03/23 00:51:23;;;;;;;9.30;1.50;;;12.80;99.90;;;;;;4920452;29;20038;-79
2023/03/23 00:53:49;;;;;;;9.77;1.60;;;12.80;99.90;;;;;;4907624;29;20036;-81
2023/03/23 00:56:14;;;;;;;6.50;1.40;;;12.80;99.90;;;;;;4907815;29;20045;-81
2023/03/23 00:58:40;;;;;;;5.32;1.23;;;12.80;99.90;;;;;;4903166;29;20020;-78
2023/03/23 01:01:06;;;;;;;8.10;1.40;;;12.70;99.90;;;;;;4908163;29;20072;-75
2023/03/23 01:03:33;;;;;;;6.85;1.30;;;12.70;99.90;;;;;;4915508;29;20052;-76
2023/03/23 01:06:05;;;;;;;5.30;1.23;;;12.70;99.90;;;;;;4901603;29;20081;-77
2023/03/23 01:08:31;;;;;;;7.43;1.45;;;12.70;99.90;;;;;;4908116;29;20838;-75
2023/03/23 01:11:07;;;;;;;7.95;1.20;;;12.80;99.90;;;;;;4916776;29;20569;-76
2023/03/23 01:13:33;;;;;;;7.00;1.13;;;12.80;99.90;;;;;;4906493;29;20084;-75
2023/03/23 01:15:59;;;;;;;8.07;1.42;;;12.80;99.90;;;;;;4914376;29;20032;-75
2023/03/23 01:18:25;;;;;;;7.72;1.15;;;12.80;99.90;;;;;;4919237;29;20041;-77
2023/03/23 01:20:50;;;;;;;6.85;1.25;;;12.80;99.90;;;;;;4919228;29;20068;-76
2023/03/23 01:23:16;;;;;;;8.00;1.33;;;12.80;99.90;;;;;;4920326;29;20036;-77
2023/03/23 01:33:07;;;;;;;6.07;1.27;;;12.80;99.90;;;;;;4902016;29;20084;-77
2023/03/23 01:35:32;;;;;;;5.80;1.20;;;12.70;99.90;;;;;;4901591;29;20032;-76
2023/03/23 01:37:58;;;;;;;7.05;1.50;;;12.70;99.90;;;;;;4901423;29;20036;-76
2023/03/23 01:40:26;;;;;;;7.05;1.27;;;12.70;99.90;;;;;;4907226;29;20031;-77
2023/03/23 01:42:52;;;;;;;2.58;1.10;;;12.70;99.90;;;;;;4905031;29;20446;-78
2023/03/23 01:45:28;;;;;;;10.05;1.65;;;12.70;99.90;;;;;;4901399;29;20084;-77
2023/03/23 01:48:22;;;;;;;6.90;1.48;;;12.70;99.90;;;;;;4911712;29;20406;-77
2023/03/23 01:50:53;;;;;;;7.30;1.38;;;12.70;99.90;;;;;;4903660;29;20047;-77
2023/03/23 01:53:20;;;;;;;7.18;1.40;;;12.60;99.90;;;;;;4916839;29;20028;-80
2023/03/23 01:55:50;;;;;;;7.05;1.38;;;12.60;99.90;;;;;;4922626;29;20031;-79
2023/03/23 01:58:19;;;;;;;8.30;1.65;;;12.60;99.90;;;;;;4922400;29;20032;-81
2023/03/23 02:00:45;;;;;;;9.25;1.67;;;12.70;99.90;;;;;;4918257;29;20024;-82
2023/03/23 02:03:13;;;;;;;8.80;1.80;;;12.60;99.90;;;;;;4922468;29;20024;-79
2023/03/23 02:05:42;;;;;;;5.38;1.15;;;12.60;99.90;;;;;;4923113;29;20559;-76
2023/03/23 02:08:10;;;;;;;8.40;1.52;;;12.60;99.90;;;;;;4922540;29;20477;-76
2023/03/23 02:10:37;;;;;;;8.80;2.00;;;12.60;99.90;;;;;;4923158;29;20442;-78
2023/03/23 02:13:06;;;;;;;7.70;1.63;;;12.60;99.90;;;;;;4922889;29;20040;-81
2023/03/23 02:15:39;;;;;;;5.13;1.30;;;12.60;99.90;;;;;;4919291;29;20024;-81
2023/03/23 02:18:23;;;;;;;8.57;1.35;;;12.60;99.90;;;;;;4921631;29;20032;-80
2023/03/23 02:21:15;;;;;;;10.43;1.63;;;12.60;99.90;;;;;;4904831;29;20100;-82
2023/03/23 02:23:54;;;;;;;11.60;2.00;;;12.60;99.90;;;;;;4919477;29;20032;-82
2023/03/23 02:26:46;;;;;;;7.65;1.40;;;12.70;99.90;;;;;;4921277;29;20123;-82
2023/03/23 02:29:31;;;;;;;7.28;1.42;;;12.60;99.90;;;;;;4915347;29;20123;-81
2023/03/23 02:32:11;;;;;;;9.77;1.80;;;12.60;99.90;;;;;;4918451;29;20143;-80
2023/03/23 02:34:47;;;;;;;8.55;1.70;;;12.60;99.90;;;;;;4921738;29;20043;-79
2023/03/23 02:37:21;;;;;;;9.55;1.58;;;12.50;99.90;;;;;;4919100;29;20076;-77
2023/03/23 02:39:59;;;;;;;12.82;1.67;;;12.50;99.90;;;;;;4913857;29;20032;-76
2023/03/23 02:42:31;;;;;;;8.85;1.60;;;12.50;99.90;;;;;;4916452;29;20071;-78
2023/03/23 02:45:02;;;;;;;10.65;1.80;;;12.50;99.90;;;;;;4914371;29;20024;-76
2023/03/23 02:47:30;;;;;;;7.10;1.42;;;12.60;99.90;;;;;;4916014;29;20042;-76
2023/03/23 02:49:58;;;;;;;9.40;1.58;;;12.60;99.90;;;;;;4915155;29;20071;-76
2023/03/23 02:52:36;;;;;;;8.60;1.95;;;12.60;99.90;;;;;;4914100;29;20028;-77
2023/03/23 02:55:04;;;;;;;10.18;1.70;;;12.60;99.90;;;;;;4918222;29;20564;-77
2023/03/23 02:57:33;;;;;;;10.10;1.52;;;12.60;99.90;;;;;;4918717;29;20028;-81
2023/03/23 02:59:58;;;;;;;7.25;1.40;;;12.50;99.90;;;;;;4918038;29;20032;-82
2023/03/23 03:02:32;;;;;;;8.15;1.92;;;12.50;99.90;;;;;;4903870;29;20431;-81
2023/03/23 03:05:00;;;;;;;9.48;1.48;;;12.40;99.90;;;;;;4914996;29;20021;-78
2023/03/23 03:07:29;;;;;;;9.43;1.80;;;12.30;99.90;;;;;;4907217;29;20497;-80
2023/03/23 03:09:56;;;;;;;8.63;1.75;;;12.30;99.90;;;;;;4906836;29;20504;-81
2023/03/23 03:12:57;;;;;;;10.20;2.28;;;12.20;99.90;;;;;;4901995;29;20478;-81
2023/03/23 03:15:26;;;;;;;9.07;1.80;;;12.20;99.90;;;;;;4852252;29;20030;-79
2023/03/23 03:18:17;;;;;;;9.73;1.48;;;12.20;99.90;;;;;;4902594;29;20109;-78
2023/03/23 03:20:47;;;;;;;9.75;1.90;;;12.20;99.90;;;;;;4907019;29;20393;-79
2023/03/23 03:23:15;;;;;;;7.80;1.30;;;12.20;99.90;;;;;;4920760;29;20047;-79
2023/03/23 03:25:47;;;;;;;9.50;1.50;;;12.10;99.90;;;;;;4903547;29;20108;-79
2023/03/23 03:28:16;;;;;;;13.48;1.70;;;12.10;99.90;;;;;;4904161;29;20057;-79
2023/03/23 03:30:45;;;;;;;9.35;1.58;;;12.20;99.90;;;;;;4909767;29;20031;-79
2023/03/23 03:33:12;;;;;;;9.75;1.45;;;12.20;99.90;;;;;;4920489;29;20032;-80
2023/03/23 03:35:41;;;;;;;9.82;1.50;;;12.20;99.90;;;;;;4920901;29;20020;-80
2023/03/23 03:38:10;;;;;;;8.50;1.42;;;12.30;99.90;;;;;;4921613;29;20056;-78
2023/03/23 03:40:36;;;;;;;9.02;2.22;;;12.20;99.90;;;;;;4921783;29;20080;-78
2023/03/23 03:43:03;;;;;;;8.20;1.27;;;12.30;99.90;;;;;;4921725;29;20393;-78
2023/03/23 03:45:28;;;;;;;8.25;1.48;;;12.30;99.90;;;;;;4921807;29;20032;-79
2023/03/23 03:47:54;;;;;;;11.73;1.60;;;12.30;99.90;;;;;;4916040;29;20409;-79
2023/03/23 03:50:20;;;;;;;9.57;1.70;;;12.20;99.90;;;;;;4911554;29;20498;-79
2023/03/23 03:52:46;;;;;;;6.65;1.38;;;12.20;99.90;;;;;;4921253;29;20042;-79
2023/03/23 03:55:12;;;;;;;8.35;1.50;;;12.30;99.90;;;;;;4921445;29;20047;-78
2023/03/23 03:57:38;;;;;;;9.35;1.70;;;12.30;99.90;;;;;;4916393;29;20020;-78
2023/03/23 04:00:14;;;;;;;4.45;1.10;;;12.30;99.90;;;;;;4904264;29;20020;-78
2023/03/23 04:02:50;;;;;;;7.22;1.40;;;12.30;99.90;;;;;;4918373;29;20028;-76
2023/03/23 04:05:17;;;;;;;9.25;1.73;;;12.30;99.90;;;;;;4920387;29;20028;-76
2023/03/23 04:07:42;;;;;;;8.93;1.45;;;12.30;99.90;;;;;;4919799;29;20084;-77
2023/03/23 04:10:13;;;;;;;6.35;1.38;;;12.30;99.90;;;;;;4921281;29;20028;-77
2023/03/23 04:12:39;;;;;;;9.38;1.48;;;12.30;99.90;;;;;;4920980;29;20512;-76
2023/03/23 04:15:05;;;;;;;8.95;1.60;;;12.30;99.90;;;;;;4921126;29;20104;-76
2023/03/23 04:17:31;;;;;;;7.07;1.38;;;12.30;99.90;;;;;;4920954;29;20024;-77
2023/03/23 04:19:56;;;;;;;10.57;1.50;;;12.30;99.90;;;;;;4921109;29;20512;-76
2023/03/23 04:22:29;;;;;;;7.18;1.67;;;12.40;99.90;;;;;;4920256;29;20400;-76
2023/03/23 04:25:02;;;;;;;12.80;1.95;;;12.40;99.90;;;;;;4920983;29;20020;-76
2023/03/23 04:27:28;;;;;;;8.27;1.53;;;12.40;99.90;;;;;;4913202;29;20041;-80
2023/03/23 04:29:58;;;;;;;8.05;1.73;;;12.40;99.90;;;;;;4912544;29;20028;-79
2023/03/23 04:32:28;;;;;;;8.95;1.80;;;12.40;99.90;;;;;;4907861;29;20458;-79
2023/03/23 04:34:59;;;;;;;11.20;1.70;;;12.40;99.90;;;;;;4905507;29;20028;-79
2023/03/23 04:37:28;;;;;;;12.20;1.98;;;12.40;99.90;;;;;;4909240;29;20021;-79
2023/03/23 04:40:00;;;;;;;14.10;1.80;;;12.50;99.90;;;;;;4914135;29;20033;-80
2023/03/23 04:42:29;;;;;;;11.95;1.98;;;12.40;99.90;;;;;;4902020;29;20025;-80
2023/03/23 04:44:57;;;;;;;9.25;1.65;;;12.40;99.90;;;;;;4903163;29;20032;-80
2023/03/23 04:47:23;;;;;;;11.13;1.67;;;12.40;99.90;;;;;;4902962;29;20490;-80
2023/03/23 04:49:50;;;;;;;10.32;1.80;;;12.50;99.90;;;;;;4918946;29;20497;-79
2023/03/23 04:52:16;;;;;;;9.73;1.60;;;12.40;99.90;;;;;;4920782;29;20029;-79
2023/03/23 04:54:42;;;;;;;10.75;2.10;;;12.40;99.90;;;;;;4918656;29;20032;-79
2023/03/23 04:57:08;;;;;;;9.85;1.52;;;12.40;99.90;;;;;;4901945;29;20549;-79
2023/03/23 04:59:34;;;;;;;8.50;1.33;;;12.40;99.90;;;;;;4900756;29;20052;-79
2023/03/23 05:02:00;;;;;;;9.52;1.50;;;12.40;99.90;;;;;;4900840;29;20477;-80
2023/03/23 05:04:25;;;;;;;9.90;1.85;;;12.40;99.90;;;;;;4901732;29;20379;-79
2023/03/23 05:06:52;;;;;;;9.07;1.80;;;12.40;99.90;;;;;;4901930;29;20037;-80
2023/03/23 05:09:18;;;;;;;9.70;1.73;;;12.40;99.90;;;;;;4900485;29;20052;-80
2023/03/23 05:11:43;;;;;;;9.70;1.83;;;12.40;99.90;;;;;;4902031;29;20446;-80
2023/03/23 05:14:09;;;;;;;8.52;1.70;;;12.50;99.90;;;;;;4900676;29;20032;-80
2023/03/23 05:16:37;;;;;;;9.93;1.48;;;12.50;99.90;;;;;;4900662;29;20493;-80
2023/03/23 05:19:04;;;;;;;8.70;1.50;;;12.50;99.90;;;;;;4900311;29;20039;-80
2023/03/23 05:21:30;;;;;;;9.20;1.60;;;12.50;99.90;;;;;;4901723;29;20024;-80
2023/03/23 05:23:56;;;;;;;7.53;1.38;;;12.50;99.90;;;;;;4901267;29;20474;-78
2023/03/23 05:26:28;;;;;;;8.35;1.50;;;12.50;99.90;;;;;;4901946;29;20092;-79
2023/03/23 05:28:55;;;;;;;5.43;1.23;;;12.50;99.90;;;;;;4904984;29;20028;-76
2023/03/23 05:31:21;;;;;;;6.22;1.35;;;12.50;99.90;;;;;;4906295;29;20560;-76
2023/03/23 05:33:47;;;;;;;9.77;1.50;;;12.50;99.90;;;;;;4905234;29;20029;-76
2023/03/23 05:36:13;;;;;;;5.35;1.60;;;12.50;99.90;;;;;;4904963;29;20031;-78
2023/03/23 05:38:44;;;;;;;8.35;1.60;;;12.50;99.90;;;;;;4904923;29;20084;-76
2023/03/23 05:41:11;;;;;;;6.65;1.35;;;12.50;99.90;;;;;;4905074;29;20067;-76
2023/03/23 05:43:36;;;;;;;7.53;1.52;;;12.50;99.90;;;;;;4904006;29;20028;-77
2023/03/23 05:46:02;;;;;;;8.65;1.40;;;12.50;99.90;;;;;;4905012;29;20557;-77
2023/03/23 05:48:28;;;;;;;10.65;1.95;;;12.50;99.90;;;;;;4913140;29;20044;-77
2023/03/23 05:50:54;;;;;;;7.07;1.55;;;12.50;99.90;;;;;;4923783;29;20028;-79
2023/03/23 05:53:20;;;;;;;9.07;1.77;;;12.50;99.90;;;;;;4923581;29;20053;-78
2023/03/23 05:55:46;;;;;;;11.85;1.90;;;12.50;99.90;;;;;;4922585;29;20032;-79
2023/03/23 05:58:12;;;;;;;10.90;1.80;;;12.40;99.90;;;;;;4923821;29;20017;-78
2023/03/23 06:00:38;;;;;;;7.68;1.88;;;12.50;99.90;;;;;;4922739;29;20481;-78
2023/03/23 06:03:04;;;;;;;8.57;1.52;;;12.50;99.90;;;;;;4916902;29;20116;-80
2023/03/23 06:05:30;;;;;;;12.95;1.92;;;12.50;99.90;;;;;;4922826;29;20064;-79
2023/03/23 06:07:55;;;;;;;13.05;1.67;;;12.50;99.90;;;;;;4923013;29;20032;-78
2023/03/23 06:10:22;;;;;;;10.60;1.90;;;12.50;99.90;;;;;;4922362;29;20091;-79
2023/03/23 06:12:50;;;;;;;10.98;2.05;;;12.50;99.90;;;;;;4916510;29;20499;-81
2023/03/23 06:15:16;;;;;;;10.57;1.90;;;12.50;99.90;;;;;;4918267;29;20032;-79
2023/03/23 06:17:42;;;;;;;13.35;2.63;;;12.50;99.90;;;;;;4906433;29;20029;-79
2023/03/23 06:20:09;;;;;;;16.20;2.03;;;12.50;99.90;;;;;;4919045;29;20032;-78
2023/03/23 06:22:36;;;;;;;9.20;1.88;;;12.50;99.90;;;;;;4920575;29;20020;-78
2023/03/23 06:25:02;;;;;;;14.95;2.28;;;12.50;99.90;;;;;;4917602;29;20028;-78
2023/03/23 06:27:28;;;;;;;15.27;2.30;;;12.50;99.90;;;;;;4919972;29;20028;-78
2023/03/23 06:29:56;;;;;;;13.60;2.47;;;12.50;99.90;;;;;;4921758;29;20096;-78
2023/03/23 06:32:23;;;;;;;13.80;2.17;;;12.50;99.90;;;;;;4915793;29;20052;-77
2023/03/23 06:34:49;;;;;;;12.38;2.28;;;12.50;99.90;;;;;;4921230;29;20032;-80
2023/03/23 06:37:15;;;;;;;10.77;2.25;;;12.50;99.90;;;;;;4912924;29;20061;-79
2023/03/23 06:39:41;;;;;;;12.65;2.13;;;12.60;99.90;;;;;;4914121;29;20028;-78
2023/03/23 06:42:11;;;;;;;12.77;2.50;;;12.60;99.90;;;;;;4916889;29;20150;-78
2023/03/23 06:44:38;;;;;;;10.90;2.17;;;12.60;99.90;;;;;;4906891;29;20047;-78
2023/03/23 06:47:04;;;;;;;10.32;2.10;;;12.60;99.90;;;;;;4918339;29;20525;-78
2023/03/23 06:49:30;;;;;;;15.13;2.38;;;12.60;99.90;;;;;;4917287;29;20433;-78
2023/03/23 06:52:00;;;;;;;11.80;2.25;;;12.70;99.90;;;;;;4921174;29;20066;-79
2023/03/23 06:54:26;;;;;;;11.25;2.15;;;12.70;99.90;;;;;;4921570;29;20032;-79
2023/03/23 06:56:51;;;;;;;11.73;1.90;;;12.80;99.90;;;;;;4920151;29;20115;-79
2023/03/23 06:59:17;;;;;;;11.10;2.15;;;12.80;99.90;;;;;;4921628;29;20018;-78
2023/03/23 07:01:43;;;;;;;8.10;2.13;;;12.90;99.90;;;;;;4920578;29;20115;-78
2023/03/23 07:04:08;;;;;;;9.20;1.92;;;12.90;99.90;;;;;;4908847;29;20393;-78
2023/03/23 07:06:34;;;;;;;8.60;1.85;;;12.90;99.90;;;;;;4912670;29;20521;-79
2023/03/23 07:09:00;;;;;;;12.73;2.33;;;12.90;99.90;;;;;;4920489;29;20396;-77
2023/03/23 07:11:26;;;;;;;11.68;2.55;;;12.90;99.90;;;;;;4907268;29;20037;-77
2023/03/23 07:13:52;;;;;;;9.93;2.03;;;13.00;99.90;;;;;;4921276;29;20075;-76
2023/03/23 07:16:17;;;;;;;19.20;2.55;;;13.00;99.90;;;;;;4920511;29;20075;-77
2023/03/23 07:18:43;;;;;;;11.95;2.25;;;13.10;99.90;;;;;;4911717;29;20039;-79
2023/03/23 07:21:09;;;;;;;12.02;2.42;;;13.10;99.90;;;;;;4914628;29;20036;-77
2023/03/23 07:23:35;;;;;;;16.35;2.60;;;13.10;99.90;;;;;;4902521;29;20064;-74
2023/03/23 07:26:03;;;;;;;12.20;2.33;;;13.10;99.90;;;;;;4901136;29;20036;-76
2023/03/23 07:28:29;;;;;;;15.98;2.63;;;13.10;99.90;;;;;;4902871;29;20025;-77
2023/03/23 07:30:54;;;;;;;14.23;2.60;;;13.20;99.90;;;;;;4902557;29;20111;-77
2023/03/23 07:33:21;;;;;;;13.50;2.35;;;13.20;99.90;;;;;;4909314;29;20088;-78
2023/03/23 07:35:47;;;;;;;16.63;2.80;;;13.30;99.90;;;;;;4902645;29;20056;-77
2023/03/23 07:38:14;;;;;;;12.95;2.10;;;13.30;99.90;;;;;;4904438;29;20027;-77
2023/03/23 07:40:40;;;;;;;15.35;2.65;;;13.30;99.90;;;;;;4909534;29;20083;-76
2023/03/23 07:43:06;;;;;;;14.55;2.53;;;13.40;99.90;;;;;;4921393;29;20051;-78
2023/03/23 07:45:33;;;;;;;17.52;2.80;;;13.40;99.90;;;;;;4921532;29;20032;-76
2023/03/23 07:47:59;;;;;;;10.88;2.00;;;13.50;99.90;;;;;;4918380;29;20485;-77
2023/03/23 07:50:26;;;;;;;13.88;2.78;;;13.60;99.90;;;;;;4915217;29;20036;-77
2023/03/23 07:52:54;;;;;;;14.65;3.03;;;13.60;99.90;;;;;;4901149;29;20485;-75
2023/03/23 07:55:24;;;;;;;12.02;2.38;;;13.60;99.90;;;;;;4902458;29;20100;-76
2023/03/23 07:57:50;;;;;;;12.38;2.20;;;13.70;99.90;;;;;;4901243;29;20107;-76
2023/03/23 08:00:23;;;;;;;15.90;2.47;;;13.70;99.90;;;;;;4902520;29;20024;-76
2023/03/23 08:02:56;;;;;;;16.57;2.87;;;13.70;99.90;;;;;;4901558;29;20028;-76
2023/03/23 08:05:25;;;;;;;12.88;2.70;;;13.60;99.90;;;;;;4901522;29;20065;-76
2023/03/23 08:07:54;;;;;;;15.85;2.40;;;13.70;99.90;;;;;;4900944;29;20032;-75
2023/03/23 08:10:24;;;;;;;14.85;3.17;;;13.70;99.90;;;;;;4902200;29;20474;-77
2023/03/23 08:12:52;;;;;;;16.80;3.15;;;13.70;99.90;;;;;;4915404;29;20028;-78
2023/03/23 08:15:19;;;;;;;18.20;3.42;;;13.80;99.90;;;;;;4918822;29;20025;-78
2023/03/23 08:17:44;;;;;;;18.15;3.35;;;13.70;99.90;;;;;;4909823;29;20027;-78
2023/03/23 08:20:14;;;;;;;14.45;3.20;;;13.70;99.90;;;;;;4910722;29;20088;-77
2023/03/23 08:22:44;;;;;;;18.73;2.67;;;13.80;99.90;;;;;;4901867;29;20032;-77
2023/03/23 08:25:12;;;;;;;21.27;2.72;;;13.80;99.90;;;;;;4902361;29;20358;-77
2023/03/23 08:27:43;;;;;;;16.23;2.88;;;13.80;99.90;;;;;;4902397;29;20033;-77
2023/03/23 08:30:10;;;;;;;18.73;2.58;;;13.90;99.90;;;;;;4902250;29;20512;-77
2023/03/23 08:32:37;;;;;;;14.55;3.05;;;14.00;99.90;;;;;;4900767;29;20031;-76
2023/03/23 08:35:03;;;;;;;18.17;2.65;;;14.00;99.90;;;;;;4901015;29;20036;-77
2023/03/23 08:37:29;;;;;;;15.07;2.75;;;14.10;99.90;;;;;;4901910;29;20028;-76
2023/03/23 08:39:57;;;;;;;18.13;3.40;;;14.20;99.90;;;;;;4901911;29;20076;-76
2023/03/23 08:42:24;;;;;;;10.73;2.45;;;14.30;99.90;;;;;;4919562;29;20099;-77
2023/03/23 08:44:50;;;;;;;13.18;2.40;;;14.30;99.90;;;;;;4920897;29;20032;-75
2023/03/23 08:47:17;;;;;;;12.55;2.60;;;14.30;99.90;;;;;;4918858;29;20056;-77
2023/03/23 08:49:43;;;;;;;17.85;2.88;;;14.30;99.90;;;;;;4919251;29;20044;-76
2023/03/23 08:52:09;;;;;;;14.60;2.92;;;14.20;99.90;;;;;;4902305;29;20425;-76
2023/03/23 08:54:35;;;;;;;11.63;2.72;;;14.20;99.90;;;;;;4901428;29;20488;-77
2023/03/23 08:57:01;;;;;;;13.25;2.78;;;14.10;99.90;;;;;;4901623;29;20039;-76
2023/03/23 08:59:27;;;;;;;12.48;2.85;;;14.10;99.90;;;;;;4901917;29;20069;-77
2023/03/23 09:01:54;;;;;;;11.43;2.38;;;14.00;99.90;;;;;;4907896;29;20059;-76
2023/03/23 09:04:19;;;;;;;15.77;2.58;;;14.00;99.90;;;;;;4923346;29;20032;-77
2023/03/23 09:06:45;;;;;;;10.32;2.35;;;14.00;99.90;;;;;;4905988;29;20486;-77
2023/03/23 09:09:12;;;;;;;15.98;2.65;;;14.00;99.90;;;;;;4905389;29;20031;-77
2023/03/23 09:11:38;;;;;;;12.57;2.42;;;13.90;99.90;;;;;;4905591;29;20839;-77
2023/03/23 09:14:06;;;;;;;18.63;3.22;;;13.80;99.90;;;;;;4905100;29;20389;-76
2023/03/23 09:16:32;;;;;;;15.70;2.75;;;13.80;99.90;;;;;;4904180;29;20075;-77
2023/03/23 09:18:59;;;;;;;10.30;2.42;;;13.80;99.90;;;;;;4915824;29;20489;-75
2023/03/23 09:21:26;;;;;;;10.85;2.40;;;13.80;99.90;;;;;;4917456;29;20112;-77
2023/03/23 09:23:56;;;;;;;15.15;3.05;;;13.90;99.90;;;;;;4923960;29;20032;-79
2023/03/23 09:26:22;;;;;;;12.88;2.83;;;14.10;99.90;;;;;;4924242;29;20028;-79
2023/03/23 09:28:47;;;;;;;12.60;2.30;;;14.10;99.90;;;;;;4924062;29;20028;-79
2023/03/23 09:31:13;;;;;;;11.50;2.47;;;14.20;99.90;;;;;;4920483;29;20675;-70
2023/03/23 09:33:39;;;;;;;10.43;2.28;;;;;;;;;;4908294;29;20035;-68
2023/03/23 09:36:07;;;;;;;12.63;2.60;;;;;;;;;;4917198;29;20051;-70
2023/03/23 09:38:34;;;;;;;13.50;2.60;;;;;;;;;;4914078;29;20043;-74
2023/03/23 09:41:15;;;;;;;10.40;2.33;;;;;;;;;;4917005;29;20036;-70
2023/03/23 09:43:59;;;;;;;13.25;2.35;;;;;;;;;;4909673;29;20036;-72
2023/03/23 09:46:28;;;;;;;12.98;2.38;;;;;;;;;;4919812;29;20032;-71
2023/03/23 09:49:00;;;;;;;10.13;2.20;;;;;;;;;;4917501;29;20052;-72
2023/03/23 09:51:39;;;;;;;12.65;2.53;;;;;;;;;;4915624;29;20049;-72
2023/03/23 09:54:25;;;;;;;11.73;2.42;;;;;;;;;;4910618;29;20850;-72
2023/03/23 09:56:51;;;;;;;12.07;2.70;;;14.90;99.90;;;;;;4920679;29;20107;-74
2023/03/23 09:59:46;;;;;;;10.30;2.45;;;14.90;99.90;;;;;;4916853;29;20081;-73
2023/03/23 10:02:40;;;;;;;13.57;2.60;;;14.90;99.90;;;;;;4922786;29;20055;-73
2023/03/23 10:05:33;;;;;;;13.23;2.10;;;14.90;99.90;;;;;;4881957;29;20036;-73
2023/03/23 10:08:00;;;;;;;12.15;2.30;;;14.90;99.90;;;;;;4897120;29;20032;-72
2023/03/23 10:11:14;;;;;;;12.95;2.47;;;15.00;99.90;;;;;;4903183;29;20032;-73
2023/03/23 10:13:48;;;;;;;9.15;2.17;;;15.00;99.90;;;;;;4900243;29;20044;-73
2023/03/23 10:16:21;;;;;;;9.30;2.63;;;14.90;99.90;;;;;;4922509;29;20032;-73
2023/03/23 10:18:55;;;;;;;12.13;2.40;;;15.10;99.90;;;;;;4923347;29;20114;-74
2023/03/23 10:21:24;;;;;;;10.77;2.42;;;15.10;99.90;;;;;;4920197;29;20036;-72
2023/03/23 10:24:00;;;;;;;15.52;2.50;;;15.20;99.90;;;;;;4919712;29;20131;-72
2023/03/23 10:26:45;;;;;;;13.35;2.30;;;15.20;99.90;;;;;;4910924;29;20032;-73
2023/03/23 10:29:31;;;;;;;10.45;2.20;;;15.10;99.90;;;;;;4905809;29;20032;-71
2023/03/23 10:32:13;;;;;;;10.23;2.35;;;15.20;99.90;;;;;;4902794;29;20035;-70
2023/03/23 10:34:58;;;;;;;13.80;2.60;;;15.30;99.90;;;;;;4910305;29;20076;-71
2023/03/23 10:37:32;;;;;;;10.05;2.00;;;15.30;99.90;;;;;;4921214;29;20111;-72
2023/03/23 10:40:00;;;;;;;9.25;2.00;;;15.30;99.90;;;;;;4922803;29;20028;-69
2023/03/23 10:42:38;;;;;;;7.85;2.10;;;15.30;99.90;;;;;;4922708;29;20040;-68
2023/03/23 10:45:22;;;;;;;10.75;1.90;;;15.40;99.90;;;;;;4922284;29;20027;-69
2023/03/23 10:48:05;;;;;;;9.13;2.13;;;15.30;99.90;;;;;;4906364;29;20040;-69
2023/03/23 10:50:33;;;;;;;10.32;2.05;;;15.20;99.90;;;;;;4921785;29;20024;-69
2023/03/23 10:53:01;;;;;;;9.30;2.13;;;15.10;99.90;;;;;;4922277;29;20036;-69
2023/03/23 10:55:43;;;;;;;10.05;2.10;;;15.00;99.90;;;;;;4917324;29;20071;-69
2023/03/23 10:58:23;;;;;;;10.73;2.05;;;14.80;99.90;;;;;;4917931;29;20552;-70
2023/03/23 11:00:50;;;;;;;9.68;2.40;;;14.80;99.90;;;;;;4920602;29;20437;-70
2023/03/23 11:03:17;;;;;;;9.70;2.17;;;14.90;99.90;;;;;;4905871;29;20088;-69
2023/03/23 11:05:54;;;;;;;9.82;2.25;;;14.90;99.90;;;;;;4917969;29;20126;-70
2023/03/23 11:08:23;;;;;;;11.38;2.42;;;14.90;99.90;;;;;;4918542;29;20036;-70
2023/03/23 11:11:17;;;;;;;12.85;2.58;;;14.90;99.90;;;;;;4907171;29;20045;-67
2023/03/23 11:13:45;;;;;;;12.00;2.25;;;14.80;99.90;;;;;;4911247;29;20044;-67
2023/03/23 11:16:35;;;;;;;10.90;2.03;;;14.70;99.90;;;;;;4918932;29;20028;-66
2023/03/23 11:19:13;;;;;;;13.45;2.58;;;14.70;99.90;;;;;;4916666;29;20061;-67
2023/03/23 11:21:39;;;;;;;7.40;1.80;;;14.80;99.90;;;;;;4915424;29;20051;-70
2023/03/23 11:24:07;;;;;;;9.65;1.80;;;14.90;99.90;;;;;;4920857;29;20066;-71
2023/03/23 11:26:37;;;;;;;11.63;2.65;;;15.10;99.90;;;;;;4919773;29;20028;-69
2023/03/23 11:29:14;;;;;;;13.05;2.60;;;15.30;99.90;;;;;;4919491;29;20042;-68
2023/03/23 11:31:42;;;;;;;10.85;2.63;;;15.40;99.90;;;;;;4920165;29;20021;-68
2023/03/23 11:34:16;;;;;;;15.20;2.63;;;15.30;99.90;;;;;;4921385;29;20402;-68
2023/03/23 11:36:49;;;;;;;9.15;2.40;;;15.20;99.90;;;;;;4920483;29;20393;-70
2023/03/23 11:39:23;;;;;;;15.73;3.05;;;15.10;99.90;;;;;;4919982;29;20032;-70
2023/03/23 11:41:49;;;;;;;12.68;2.60;;;15.10;99.90;;;;;;4918462;29;20032;-68
2023/03/23 11:44:15;;;;;;;14.27;2.72;;;14.90;99.90;;;;;;4904760;29;20120;-70
2023/03/23 11:47:02;;;;;;;10.93;2.80;;;14.90;99.90;;;;;;4915167;29;20032;-68
2023/03/23 11:49:47;;;;;;;14.55;2.55;;;14.80;99.90;;;;;;4911510;29;20091;-71
2023/03/23 11:52:42;;;;;;;12.82;2.95;;;14.90;99.90;;;;;;4915298;29;20394;-71
2023/03/23 11:55:28;;;;;;;9.80;2.63;;;15.00;99.90;;;;;;4914092;29;20096;-72
2023/03/23 11:57:55;;;;;;;12.90;2.38;;;15.00;99.90;;;;;;4921445;29;20095;-70
2023/03/23 12:00:23;;;;;;;14.55;2.70;;;15.20;99.90;;;;;;4919725;29;20020;-66
2023/03/23 12:03:18;;;;;;;14.40;2.78;;;15.30;99.90;;;;;;4919635;29;20029;-72
2023/03/23 12:06:04;;;;;;;19.80;2.92;;;15.40;99.90;;;;;;4910723;29;20111;-70
2023/03/23 12:08:52;;;;;;;11.50;2.90;;;15.50;99.90;;;;;;4905811;29;20032;-69
2023/03/23 12:11:19;;;;;;;12.65;2.65;;;15.70;99.90;;;;;;4919606;29;20512;-69
2023/03/23 12:14:02;;;;;;;17.10;3.38;;;15.80;99.90;;;;;;4919827;29;20489;-69
2023/03/23 12:16:56;;;;;;;14.02;2.50;;;15.80;99.90;;;;;;4919652;29;20412;-70
2023/03/23 12:19:45;;;;;;;11.18;2.85;;;15.70;99.90;;;;;;4920762;29;20501;-69
2023/03/23 12:22:40;;;;;;;10.40;2.65;;;15.70;99.90;;;;;;4920500;29;20116;-68
2023/03/23 12:25:37;;;;;;;12.25;2.78;;;15.70;99.90;;;;;;4919438;29;20034;-70
2023/03/23 12:28:18;;;;;;;16.17;2.92;;;15.80;99.90;;;;;;4921080;29;20106;-69
2023/03/23 12:31:01;;;;;;;14.73;2.90;;;16.00;99.90;;;;;;4919478;29;20024;-70
2023/03/23 12:33:52;;;;;;;9.75;2.58;;;16.20;99.90;;;;;;4920986;29;20031;-70
2023/03/23 12:36:42;;;;;;;11.07;2.60;;;16.30;99.90;;;;;;4921319;29;20032;-70
2023/03/23 12:39:49;;;;;;;10.88;2.92;;;16.30;99.90;;;;;;4920565;29;20031;-70
2023/03/23 12:42:20;;;;;;;15.27;2.95;;;16.50;99.90;;;;;;4920599;29;20552;-70
2023/03/23 12:44:53;;;;;;;13.10;2.75;;;16.50;99.90;;;;;;4919606;29;20028;-70
2023/03/23 12:47:18;;;;;;;11.30;2.43;;;16.30;99.90;;;;;;4917598;29;20056;-69
2023/03/23 12:49:50;;;;;;;11.55;3.10;;;16.30;99.90;;;;;;4918135;29;20032;-70
2023/03/23 12:52:32;;;;;;;16.98;3.03;;;16.50;99.90;;;;;;4900068;29;20572;-69
2023/03/23 12:55:07;;;;;;;13.40;2.90;;;16.70;99.90;;;;;;4901701;29;20028;-70
2023/03/23 12:57:59;;;;;;;12.57;2.63;;;16.80;99.90;;;;;;4900468;29;20083;-69
2023/03/23 13:00:30;;;;;;;16.48;3.42;;;16.90;99.90;;;;;;4906692;29;20084;-69
2023/03/23 13:03:23;;;;;;;13.75;3.28;;;17.00;99.90;;;;;;4920567;29;20438;-69
2023/03/23 13:05:55;;;;;;;14.52;3.75;;;17.00;99.90;;;;;;4915837;29;20036;-69
2023/03/23 13:08:37;;;;;;;14.10;3.17;;;17.00;99.90;;;;;;4919301;29;20041;-70
2023/03/23 13:11:18;;;;;;;13.13;3.53;;;17.00;99.90;;;;;;4920500;29;20111;-70